sensor_id;sensor_type;location;lat;lon;timestamp;P1;durP1;ratioP1;P2;durP2;ratioP2
72275;SDS011;61204;49.980;8.358;2023-09-19T00:00:45;1.67;;;0.90;;
72275;SDS011;61204;49.980;8.358;2023-09-19T00:03:12;2.05;;;0.80;;
72275;SDS011;61204;49.980;8.358;2023-09-19T00:05:41;1.42;;;1.00;;
72275;SDS011;61204;49.980;8.358;2023-09-19T00:08:13;3.17;;;0.82;;
72275;SDS011;61204;49.980;8.358;2023-09-19T00:10:39;3.08;;;1.20;;
72275;SDS011;61204;49.980;8.358;2023-09-19T00:13:06;4.13;;;1.27;;
72275;SDS011;61204;49.980;8.358;2023-09-19T00:15:45;2.47;;;1.05;;
72275;SDS011;61204;49.980;8.358;2023-09-19T00:18:14;3.03;;;1.00;;
72275;SDS011;61204;49.980;8.358;2023-09-19T00:20:41;1.73;;;1.10;;
72275;SDS011;61204;49.980;8.358;2023-09-19T00:23:07;2.80;;;1.10;;
72275;SDS011;61204;49.980;8.358;2023-09-19T00:25:36;1.83;;;0.88;;
72275;SDS011;61204;49.980;8.358;2023-09-19T00:28:03;3.42;;;1.30;;
72275;SDS011;61204;49.980;8.358;2023-09-19T00:30:31;3.20;;;0.98;;
72275;SDS011;61204;49.980;8.358;2023-09-19T00:32:58;1.65;;;0.68;;
72275;SDS011;61204;49.980;8.358;2023-09-19T00:35:23;2.35;;;1.00;;
72275;SDS011;61204;49.980;8.358;2023-09-19T00:37:49;1.55;;;1.00;;
72275;SDS011;61204;49.980;8.358;2023-09-19T00:40:18;1.48;;;0.77;;
72275;SDS011;61204;49.980;8.358;2023-09-19T00:42:44;1.38;;;0.80;;
72275;SDS011;61204;49.980;8.358;2023-09-19T00:45:12;2.22;;;1.30;;
72275;SDS011;61204;49.980;8.358;2023-09-19T00:47:43;2.03;;;0.77;;
72275;SDS011;61204;49.980;8.358;2023-09-19T00:50:14;4.78;;;1.40;;
72275;SDS011;61204;49.980;8.358;2023-09-19T00:52:44;2.33;;;1.40;;
72275;SDS011;61204;49.980;8.358;2023-09-19T00:55:14;1.70;;;0.95;;
72275;SDS011;61204;49.980;8.358;2023-09-19T00:57:44;3.20;;;1.23;;
72275;SDS011;61204;49.980;8.358;2023-09-19T01:00:12;2.03;;;1.08;;
72275;SDS011;61204;49.980;8.358;2023-09-19T01:02:44;1.67;;;0.80;;
72275;SDS011;61204;49.980;8.358;2023-09-19T01:05:11;1.83;;;1.10;;
72275;SDS011;61204;49.980;8.358;2023-09-19T01:07:38;2.58;;;1.25;;
72275;SDS011;61204;49.980;8.358;2023-09-19T01:10:11;3.70;;;1.20;;
72275;SDS011;61204;49.980;8.358;2023-09-19T01:13:05;5.55;;;1.20;;
72275;SDS011;61204;49.980;8.358;2023-09-19T01:16:03;2.42;;;1.17;;
72275;SDS011;61204;49.980;8.358;2023-09-19T01:18:57;2.28;;;1.45;;
72275;SDS011;61204;49.980;8.358;2023-09-19T01:21:58;2.88;;;1.35;;
72275;SDS011;61204;49.980;8.358;2023-09-19T01:31:33;1.60;;;1.30;;
72275;SDS011;61204;49.980;8.358;2023-09-19T01:34:03;1.50;;;1.17;;
72275;SDS011;61204;49.980;8.358;2023-09-19T01:36:32;2.40;;;1.38;;
72275;SDS011;61204;49.980;8.358;2023-09-19T01:39:04;3.47;;;1.52;;
72275;SDS011;61204;49.980;8.358;2023-09-19T01:47:19;3.08;;;1.52;;
72275;SDS011;61204;49.980;8.358;2023-09-19T01:53:05;2.40;;;1.30;;
72275;SDS011;61204;49.980;8.358;2023-09-19T01:55:46;5.75;;;1.55;;
72275;SDS011;61204;49.980;8.358;2023-09-19T02:01:24;3.90;;;1.23;;
72275;SDS011;61204;49.980;8.358;2023-09-19T02:03:53;3.72;;;1.15;;
72275;SDS011;61204;49.980;8.358;2023-09-19T02:06:21;2.10;;;1.42;;
72275;SDS011;61204;49.980;8.358;2023-09-19T02:08:47;2.40;;;1.30;;
72275;SDS011;61204;49.980;8.358;2023-09-19T02:11:15;3.33;;;1.63;;
72275;SDS011;61204;49.980;8.358;2023-09-19T02:13:41;2.42;;;1.42;;
72275;SDS011;61204;49.980;8.358;2023-09-19T02:16:09;3.08;;;0.98;;
72275;SDS011;61204;49.980;8.358;2023-09-19T02:18:36;2.17;;;1.23;;
72275;SDS011;61204;49.980;8.358;2023-09-19T02:21:01;2.97;;;1.08;;
72275;SDS011;61204;49.980;8.358;2023-09-19T02:23:29;2.00;;;1.35;;
72275;SDS011;61204;49.980;8.358;2023-09-19T02:25:55;2.45;;;1.58;;
72275;SDS011;61204;49.980;8.358;2023-09-19T02:28:31;2.33;;;1.10;;
72275;SDS011;61204;49.980;8.358;2023-09-19T02:30:57;3.35;;;1.42;;
72275;SDS011;61204;49.980;8.358;2023-09-19T02:33:23;2.40;;;1.10;;
72275;SDS011;61204;49.980;8.358;2023-09-19T02:35:49;2.75;;;1.10;;
72275;SDS011;61204;49.980;8.358;2023-09-19T02:38:20;4.68;;;1.65;;
72275;SDS011;61204;49.980;8.358;2023-09-19T02:40:49;2.78;;;1.60;;
72275;SDS011;61204;49.980;8.358;2023-09-19T02:43:18;4.82;;;1.13;;
72275;SDS011;61204;49.980;8.358;2023-09-19T02:45:47;4.28;;;1.13;;
72275;SDS011;61204;49.980;8.358;2023-09-19T02:48:18;4.65;;;1.25;;
72275;SDS011;61204;49.980;8.358;2023-09-19T02:50:44;2.47;;;1.30;;
72275;SDS011;61204;49.980;8.358;2023-09-19T02:53:11;2.70;;;1.30;;
72275;SDS011;61204;49.980;8.358;2023-09-19T02:55:39;1.88;;;1.33;;
72275;SDS011;61204;49.980;8.358;2023-09-19T02:58:07;1.70;;;1.25;;
72275;SDS011;61204;49.980;8.358;2023-09-19T03:00:35;4.68;;;1.58;;
72275;SDS011;61204;49.980;8.358;2023-09-19T03:03:02;2.65;;;1.30;;
72275;SDS011;61204;49.980;8.358;2023-09-19T03:05:28;5.80;;;1.38;;
72275;SDS011;61204;49.980;8.358;2023-09-19T03:07:55;2.78;;;1.17;;
72275;SDS011;61204;49.980;8.358;2023-09-19T03:10:25;3.20;;;1.45;;
72275;SDS011;61204;49.980;8.358;2023-09-19T03:12:52;6.65;;;1.10;;
72275;SDS011;61204;49.980;8.358;2023-09-19T03:15:19;6.60;;;1.70;;
72275;SDS011;61204;49.980;8.358;2023-09-19T03:17:46;3.05;;;1.30;;
72275;SDS011;61204;49.980;8.358;2023-09-19T03:20:14;4.13;;;1.60;;
72275;SDS011;61204;49.980;8.358;2023-09-19T03:22:44;3.20;;;1.40;;
72275;SDS011;61204;49.980;8.358;2023-09-19T03:25:11;3.38;;;1.65;;
72275;SDS011;61204;49.980;8.358;2023-09-19T03:27:38;2.95;;;1.30;;
72275;SDS011;61204;49.980;8.358;2023-09-19T03:30:07;4.00;;;1.58;;
72275;SDS011;61204;49.980;8.358;2023-09-19T03:32:45;4.13;;;1.73;;
72275;SDS011;61204;49.980;8.358;2023-09-19T03:35:14;6.05;;;1.90;;
72275;SDS011;61204;49.980;8.358;2023-09-19T03:37:45;2.28;;;1.30;;
72275;SDS011;61204;49.980;8.358;2023-09-19T03:40:11;2.58;;;1.48;;
72275;SDS011;61204;49.980;8.358;2023-09-19T03:42:40;3.05;;;1.35;;
72275;SDS011;61204;49.980;8.358;2023-09-19T03:45:07;2.95;;;1.67;;
72275;SDS011;61204;49.980;8.358;2023-09-19T03:47:38;3.90;;;1.95;;
72275;SDS011;61204;49.980;8.358;2023-09-19T03:50:05;4.82;;;1.88;;
72275;SDS011;61204;49.980;8.358;2023-09-19T03:52:40;5.72;;;2.03;;
72275;SDS011;61204;49.980;8.358;2023-09-19T03:55:06;5.97;;;2.13;;
72275;SDS011;61204;49.980;8.358;2023-09-19T03:57:32;3.75;;;1.75;;
72275;SDS011;61204;49.980;8.358;2023-09-19T03:59:57;2.80;;;2.03;;
72275;SDS011;61204;49.980;8.358;2023-09-19T04:02:23;3.72;;;1.90;;
72275;SDS011;61204;49.980;8.358;2023-09-19T04:04:50;6.18;;;2.00;;
72275;SDS011;61204;49.980;8.358;2023-09-19T04:07:17;3.40;;;1.90;;
72275;SDS011;61204;49.980;8.358;2023-09-19T04:09:47;4.45;;;2.20;;
72275;SDS011;61204;49.980;8.358;2023-09-19T04:12:14;6.43;;;1.85;;
72275;SDS011;61204;49.980;8.358;2023-09-19T04:14:42;3.13;;;2.03;;
72275;SDS011;61204;49.980;8.358;2023-09-19T04:17:08;7.18;;;2.55;;
72275;SDS011;61204;49.980;8.358;2023-09-19T04:19:33;2.85;;;2.00;;
72275;SDS011;61204;49.980;8.358;2023-09-19T04:21:59;4.90;;;2.25;;
72275;SDS011;61204;49.980;8.358;2023-09-19T04:24:24;4.07;;;1.83;;
72275;SDS011;61204;49.980;8.358;2023-09-19T04:26:50;4.88;;;1.85;;
72275;SDS011;61204;49.980;8.358;2023-09-19T04:29:15;4.28;;;2.10;;
72275;SDS011;61204;49.980;8.358;2023-09-19T04:31:43;5.13;;;1.95;;
72275;SDS011;61204;49.980;8.358;2023-09-19T04:34:10;3.50;;;1.73;;
72275;SDS011;61204;49.980;8.358;2023-09-19T04:36:39;3.10;;;2.00;;
72275;SDS011;61204;49.980;8.358;2023-09-19T04:39:05;5.10;;;2.25;;
72275;SDS011;61204;49.980;8.358;2023-09-19T04:41:30;4.10;;;1.55;;
72275;SDS011;61204;49.980;8.358;2023-09-19T04:43:56;2.75;;;1.80;;
72275;SDS011;61204;49.980;8.358;2023-09-19T04:46:21;6.53;;;1.70;;
72275;SDS011;61204;49.980;8.358;2023-09-19T04:48:47;2.25;;;1.45;;
72275;SDS011;61204;49.980;8.358;2023-09-19T04:51:12;4.72;;;1.98;;
72275;SDS011;61204;49.980;8.358;2023-09-19T04:53:40;3.10;;;1.63;;
72275;SDS011;61204;49.980;8.358;2023-09-19T04:56:06;2.70;;;1.65;;
72275;SDS011;61204;49.980;8.358;2023-09-19T04:58:32;4.35;;;1.65;;
72275;SDS011;61204;49.980;8.358;2023-09-19T05:00:59;5.03;;;1.77;;
72275;SDS011;61204;49.980;8.358;2023-09-19T05:03:24;4.22;;;1.65;;
72275;SDS011;61204;49.980;8.358;2023-09-19T05:05:50;4.88;;;1.90;;
72275;SDS011;61204;49.980;8.358;2023-09-19T05:08:15;5.85;;;1.98;;
72275;SDS011;61204;49.980;8.358;2023-09-19T05:10:41;4.90;;;1.67;;
72275;SDS011;61204;49.980;8.358;2023-09-19T05:13:07;2.33;;;1.58;;
72275;SDS011;61204;49.980;8.358;2023-09-19T05:15:33;5.43;;;1.80;;
72275;SDS011;61204;49.980;8.358;2023-09-19T05:18:00;4.85;;;1.90;;
72275;SDS011;61204;49.980;8.358;2023-09-19T05:20:26;4.13;;;1.55;;
72275;SDS011;61204;49.980;8.358;2023-09-19T05:22:59;7.80;;;2.30;;
72275;SDS011;61204;49.980;8.358;2023-09-19T05:25:32;5.20;;;2.13;;
72275;SDS011;61204;49.980;8.358;2023-09-19T05:28:02;3.90;;;1.65;;
72275;SDS011;61204;49.980;8.358;2023-09-19T05:30:28;3.38;;;1.85;;
72275;SDS011;61204;49.980;8.358;2023-09-19T05:32:55;3.20;;;1.52;;
72275;SDS011;61204;49.980;8.358;2023-09-19T05:35:21;3.20;;;1.20;;
72275;SDS011;61204;49.980;8.358;2023-09-19T05:37:50;5.85;;;1.60;;
72275;SDS011;61204;49.980;8.358;2023-09-19T05:40:17;3.33;;;1.63;;
72275;SDS011;61204;49.980;8.358;2023-09-19T05:42:43;3.65;;;1.80;;
72275;SDS011;61204;49.980;8.358;2023-09-19T05:45:11;2.92;;;1.52;;
72275;SDS011;61204;49.980;8.358;2023-09-19T05:47:42;2.28;;;1.25;;
72275;SDS011;61204;49.980;8.358;2023-09-19T05:50:12;4.97;;;1.80;;
72275;SDS011;61204;49.980;8.358;2023-09-19T05:52:38;4.00;;;1.52;;
72275;SDS011;61204;49.980;8.358;2023-09-19T05:55:04;4.38;;;1.85;;
72275;SDS011;61204;49.980;8.358;2023-09-19T05:57:32;3.72;;;2.00;;
72275;SDS011;61204;49.980;8.358;2023-09-19T06:00:00;3.80;;;1.63;;
72275;SDS011;61204;49.980;8.358;2023-09-19T06:02:27;3.03;;;1.23;;
72275;SDS011;61204;49.980;8.358;2023-09-19T06:04:55;2.47;;;1.50;;
72275;SDS011;61204;49.980;8.358;2023-09-19T06:07:24;3.83;;;1.90;;
72275;SDS011;61204;49.980;8.358;2023-09-19T06:09:51;7.40;;;1.90;;
72275;SDS011;61204;49.980;8.358;2023-09-19T06:12:21;3.00;;;1.60;;
72275;SDS011;61204;49.980;8.358;2023-09-19T06:14:48;3.00;;;1.80;;
72275;SDS011;61204;49.980;8.358;2023-09-19T06:17:14;8.32;;;1.63;;
72275;SDS011;61204;49.980;8.358;2023-09-19T06:19:40;5.38;;;1.60;;
72275;SDS011;61204;49.980;8.358;2023-09-19T06:22:14;4.05;;;1.70;;
72275;SDS011;61204;49.980;8.358;2023-09-19T06:24:43;5.40;;;1.50;;
72275;SDS011;61204;49.980;8.358;2023-09-19T06:27:12;3.00;;;1.50;;
72275;SDS011;61204;49.980;8.358;2023-09-19T06:29:38;8.15;;;2.05;;
72275;SDS011;61204;49.980;8.358;2023-09-19T06:32:07;2.55;;;1.40;;
72275;SDS011;61204;49.980;8.358;2023-09-19T06:34:34;4.75;;;1.45;;
72275;SDS011;61204;49.980;8.358;2023-09-19T06:36:59;8.23;;;2.05;;
72275;SDS011;61204;49.980;8.358;2023-09-19T06:39:25;2.50;;;1.27;;
72275;SDS011;61204;49.980;8.358;2023-09-19T06:41:51;6.90;;;1.50;;
72275;SDS011;61204;49.980;8.358;2023-09-19T06:44:20;3.97;;;1.40;;
72275;SDS011;61204;49.980;8.358;2023-09-19T06:46:49;2.38;;;1.73;;
72275;SDS011;61204;49.980;8.358;2023-09-19T06:49:16;4.75;;;1.40;;
72275;SDS011;61204;49.980;8.358;2023-09-19T06:51:47;3.65;;;1.42;;
72275;SDS011;61204;49.980;8.358;2023-09-19T06:54:12;3.17;;;1.50;;
72275;SDS011;61204;49.980;8.358;2023-09-19T06:56:38;2.58;;;1.33;;
72275;SDS011;61204;49.980;8.358;2023-09-19T06:59:03;2.13;;;0.98;;
72275;SDS011;61204;49.980;8.358;2023-09-19T07:01:31;2.28;;;1.30;;
72275;SDS011;61204;49.980;8.358;2023-09-19T07:03:57;4.03;;;1.17;;
72275;SDS011;61204;49.980;8.358;2023-09-19T07:06:22;2.17;;;1.10;;
72275;SDS011;61204;49.980;8.358;2023-09-19T07:08:49;4.95;;;1.10;;
72275;SDS011;61204;49.980;8.358;2023-09-19T07:11:15;4.68;;;1.35;;
72275;SDS011;61204;49.980;8.358;2023-09-19T07:13:41;4.22;;;1.17;;
72275;SDS011;61204;49.980;8.358;2023-09-19T07:16:06;2.58;;;1.35;;
72275;SDS011;61204;49.980;8.358;2023-09-19T07:18:34;1.90;;;1.10;;
72275;SDS011;61204;49.980;8.358;2023-09-19T07:20:59;4.47;;;1.10;;
72275;SDS011;61204;49.980;8.358;2023-09-19T07:23:30;3.45;;;1.27;;
72275;SDS011;61204;49.980;8.358;2023-09-19T07:26:00;4.10;;;1.02;;
72275;SDS011;61204;49.980;8.358;2023-09-19T07:28:30;6.15;;;1.27;;
72275;SDS011;61204;49.980;8.358;2023-09-19T07:30:57;2.22;;;0.90;;
72275;SDS011;61204;49.980;8.358;2023-09-19T07:33:35;2.40;;;0.75;;
72275;SDS011;61204;49.980;8.358;2023-09-19T07:36:01;7.38;;;1.63;;
72275;SDS011;61204;49.980;8.358;2023-09-19T07:38:27;2.90;;;1.00;;
72275;SDS011;61204;49.980;8.358;2023-09-19T07:40:53;2.90;;;1.23;;
72275;SDS011;61204;49.980;8.358;2023-09-19T07:43:27;4.75;;;1.40;;
72275;SDS011;61204;49.980;8.358;2023-09-19T07:45:53;2.63;;;1.00;;
72275;SDS011;61204;49.980;8.358;2023-09-19T07:48:19;3.25;;;0.75;;
72275;SDS011;61204;49.980;8.358;2023-09-19T07:50:44;4.88;;;1.05;;
72275;SDS011;61204;49.980;8.358;2023-09-19T07:53:10;3.28;;;0.82;;
72275;SDS011;61204;49.980;8.358;2023-09-19T07:55:38;1.77;;;0.90;;
72275;SDS011;61204;49.980;8.358;2023-09-19T07:58:06;3.10;;;1.38;;
72275;SDS011;61204;49.980;8.358;2023-09-19T08:00:32;3.05;;;1.10;;
72275;SDS011;61204;49.980;8.358;2023-09-19T08:02:59;2.45;;;1.08;;
72275;SDS011;61204;49.980;8.358;2023-09-19T08:05:26;4.78;;;0.98;;
72275;SDS011;61204;49.980;8.358;2023-09-19T08:07:54;2.38;;;0.70;;
72275;SDS011;61204;49.980;8.358;2023-09-19T08:10:21;2.63;;;1.00;;
72275;SDS011;61204;49.980;8.358;2023-09-19T08:12:47;2.78;;;1.10;;
72275;SDS011;61204;49.980;8.358;2023-09-19T08:15:21;9.73;;;2.30;;
72275;SDS011;61204;49.980;8.358;2023-09-19T08:17:49;4.63;;;1.00;;
72275;SDS011;61204;49.980;8.358;2023-09-19T08:20:15;2.38;;;1.10;;
72275;SDS011;61204;49.980;8.358;2023-09-19T08:22:46;3.95;;;1.45;;
72275;SDS011;61204;49.980;8.358;2023-09-19T08:25:23;2.33;;;0.80;;
72275;SDS011;61204;49.980;8.358;2023-09-19T08:27:51;3.67;;;1.00;;
72275;SDS011;61204;49.980;8.358;2023-09-19T08:30:17;5.07;;;0.88;;
72275;SDS011;61204;49.980;8.358;2023-09-19T08:32:48;4.28;;;1.30;;
72275;SDS011;61204;49.980;8.358;2023-09-19T08:35:15;4.30;;;1.23;;
72275;SDS011;61204;49.980;8.358;2023-09-19T08:37:42;4.50;;;1.08;;
72275;SDS011;61204;49.980;8.358;2023-09-19T08:40:10;3.88;;;1.10;;
72275;SDS011;61204;49.980;8.358;2023-09-19T08:42:47;4.82;;;1.25;;
72275;SDS011;61204;49.980;8.358;2023-09-19T08:45:19;4.20;;;1.10;;
72275;SDS011;61204;49.980;8.358;2023-09-19T08:50:31;2.63;;;0.90;;
72275;SDS011;61204;49.980;8.358;2023-09-19T08:53:10;6.38;;;1.30;;
72275;SDS011;61204;49.980;8.358;2023-09-19T08:55:45;4.47;;;1.30;;
72275;SDS011;61204;49.980;8.358;2023-09-19T08:58:16;4.35;;;1.30;;
72275;SDS011;61204;49.980;8.358;2023-09-19T09:00:47;4.80;;;1.02;;
72275;SDS011;61204;49.980;8.358;2023-09-19T09:03:16;4.32;;;0.93;;
72275;SDS011;61204;49.980;8.358;2023-09-19T09:05:46;3.50;;;0.80;;
72275;SDS011;61204;49.980;8.358;2023-09-19T09:08:15;5.18;;;1.02;;
72275;SDS011;61204;49.980;8.358;2023-09-19T09:10:45;5.93;;;1.40;;
72275;SDS011;61204;49.980;8.358;2023-09-19T09:13:13;3.45;;;1.17;;
72275;SDS011;61204;49.980;8.358;2023-09-19T09:15:40;5.47;;;2.25;;
72275;SDS011;61204;49.980;8.358;2023-09-19T09:18:10;3.55;;;1.45;;
72275;SDS011;61204;49.980;8.358;2023-09-19T09:20:36;4.80;;;1.20;;
72275;SDS011;61204;49.980;8.358;2023-09-19T09:23:06;3.75;;;1.10;;
72275;SDS011;61204;49.980;8.358;2023-09-19T09:25:51;4.72;;;1.23;;
72275;SDS011;61204;49.980;8.358;2023-09-19T09:28:20;4.22;;;1.00;;
72275;SDS011;61204;49.980;8.358;2023-09-19T09:30:53;4.75;;;1.08;;
72275;SDS011;61204;49.980;8.358;2023-09-19T09:33:20;2.67;;;1.05;;
72275;SDS011;61204;49.980;8.358;2023-09-19T09:38:28;5.05;;;1.15;;
72275;SDS011;61204;49.980;8.358;2023-09-19T09:41:20;6.65;;;1.23;;
72275;SDS011;61204;49.980;8.358;2023-09-19T09:44:15;4.75;;;0.90;;
72275;SDS011;61204;49.980;8.358;2023-09-19T09:46:44;2.35;;;1.00;;
72275;SDS011;61204;49.980;8.358;2023-09-19T09:49:25;4.50;;;1.35;;
72275;SDS011;61204;49.980;8.358;2023-09-19T09:54:58;4.43;;;1.40;;
72275;SDS011;61204;49.980;8.358;2023-09-19T09:57:32;6.75;;;1.33;;
72275;SDS011;61204;49.980;8.358;2023-09-19T09:59:59;4.60;;;1.50;;
72275;SDS011;61204;49.980;8.358;2023-09-19T10:02:39;3.67;;;1.13;;
72275;SDS011;61204;49.980;8.358;2023-09-19T10:05:11;4.57;;;1.15;;
72275;SDS011;61204;49.980;8.358;2023-09-19T10:07:42;6.93;;;1.50;;
72275;SDS011;61204;49.980;8.358;2023-09-19T10:10:14;8.05;;;1.38;;
72275;SDS011;61204;49.980;8.358;2023-09-19T10:12:54;7.00;;;1.20;;
72275;SDS011;61204;49.980;8.358;2023-09-19T10:15:28;6.07;;;1.10;;
72275;SDS011;61204;49.980;8.358;2023-09-19T10:17:58;5.72;;;1.17;;
72275;SDS011;61204;49.980;8.358;2023-09-19T10:20:28;2.05;;;1.02;;
72275;SDS011;61204;49.980;8.358;2023-09-19T10:23:00;4.85;;;1.35;;
72275;SDS011;61204;49.980;8.358;2023-09-19T10:25:38;3.80;;;1.23;;
72275;SDS011;61204;49.980;8.358;2023-09-19T10:28:09;6.18;;;1.20;;
72275;SDS011;61204;49.980;8.358;2023-09-19T10:30:45;5.10;;;1.40;;
72275;SDS011;61204;49.980;8.358;2023-09-19T10:33:15;4.50;;;1.10;;
72275;SDS011;61204;49.980;8.358;2023-09-19T10:35:46;3.53;;;1.10;;
72275;SDS011;61204;49.980;8.358;2023-09-19T10:38:19;6.10;;;1.88;;
72275;SDS011;61204;49.980;8.358;2023-09-19T10:40:50;2.65;;;1.20;;
72275;SDS011;61204;49.980;8.358;2023-09-19T10:43:26;4.70;;;1.20;;
72275;SDS011;61204;49.980;8.358;2023-09-19T10:46:00;4.75;;;0.85;;
72275;SDS011;61204;49.980;8.358;2023-09-19T10:48:35;3.85;;;1.17;;
72275;SDS011;61204;49.980;8.358;2023-09-19T10:53:44;4.97;;;1.40;;
72275;SDS011;61204;49.980;8.358;2023-09-19T10:59:18;3.05;;;1.17;;
72275;SDS011;61204;49.980;8.358;2023-09-19T11:04:27;6.05;;;1.20;;
72275;SDS011;61204;49.980;8.358;2023-09-19T11:07:10;5.35;;;1.40;;
72275;SDS011;61204;49.980;8.358;2023-09-19T11:14:55;4.35;;;1.17;;
72275;SDS011;61204;49.980;8.358;2023-09-19T11:17:32;6.57;;;1.33;;
72275;SDS011;61204;49.980;8.358;2023-09-19T11:30:37;2.63;;;0.98;;
72275;SDS011;61204;49.980;8.358;2023-09-19T11:46:20;4.55;;;1.27;;
72275;SDS011;61204;49.980;8.358;2023-09-19T11:48:49;4.03;;;1.00;;
72275;SDS011;61204;49.980;8.358;2023-09-19T11:53:51;5.57;;;1.38;;
72275;SDS011;61204;49.980;8.358;2023-09-19T11:56:24;2.42;;;1.33;;
72275;SDS011;61204;49.980;8.358;2023-09-19T11:58:56;3.33;;;1.30;;
72275;SDS011;61204;49.980;8.358;2023-09-19T12:01:31;4.15;;;1.40;;
72275;SDS011;61204;49.980;8.358;2023-09-19T12:04:00;4.38;;;1.00;;
72275;SDS011;61204;49.980;8.358;2023-09-19T12:06:29;4.57;;;1.25;;
72275;SDS011;61204;49.980;8.358;2023-09-19T12:08:57;4.30;;;1.05;;
72275;SDS011;61204;49.980;8.358;2023-09-19T12:11:28;3.60;;;1.00;;
72275;SDS011;61204;49.980;8.358;2023-09-19T12:14:00;4.82;;;1.48;;
72275;SDS011;61204;49.980;8.358;2023-09-19T12:16:27;4.07;;;0.90;;
72275;SDS011;61204;49.980;8.358;2023-09-19T12:18:56;2.42;;;1.15;;
72275;SDS011;61204;49.980;8.358;2023-09-19T12:24:11;5.25;;;1.35;;
72275;SDS011;61204;49.980;8.358;2023-09-19T12:26:44;4.75;;;0.98;;
72275;SDS011;61204;49.980;8.358;2023-09-19T12:29:20;2.92;;;0.75;;
72275;SDS011;61204;49.980;8.358;2023-09-19T12:31:56;4.07;;;0.85;;
72275;SDS011;61204;49.980;8.358;2023-09-19T12:34:24;3.72;;;0.80;;
72275;SDS011;61204;49.980;8.358;2023-09-19T12:39:45;2.72;;;0.90;;
72275;SDS011;61204;49.980;8.358;2023-09-19T12:42:22;3.45;;;0.93;;
72275;SDS011;61204;49.980;8.358;2023-09-19T12:44:56;3.53;;;1.00;;
72275;SDS011;61204;49.980;8.358;2023-09-19T12:47:26;5.13;;;1.17;;
72275;SDS011;61204;49.980;8.358;2023-09-19T12:52:49;3.97;;;0.88;;
72275;SDS011;61204;49.980;8.358;2023-09-19T12:55:30;3.75;;;0.98;;
72275;SDS011;61204;49.980;8.358;2023-09-19T12:58:13;5.57;;;1.10;;
72275;SDS011;61204;49.980;8.358;2023-09-19T13:00:44;6.68;;;1.15;;
72275;SDS011;61204;49.980;8.358;2023-09-19T13:03:18;4.68;;;1.48;;
72275;SDS011;61204;49.980;8.358;2023-09-19T13:06:01;3.13;;;1.08;;
72275;SDS011;61204;49.980;8.358;2023-09-19T13:11:10;1.88;;;0.85;;
72275;SDS011;61204;49.980;8.358;2023-09-19T13:14:17;3.17;;;1.17;;
72275;SDS011;61204;49.980;8.358;2023-09-19T13:25:17;5.05;;;1.27;;
72275;SDS011;61204;49.980;8.358;2023-09-19T13:30:22;4.20;;;1.10;;
72275;SDS011;61204;49.980;8.358;2023-09-19T13:32:52;3.25;;;1.20;;
72275;SDS011;61204;49.980;8.358;2023-09-19T13:35:37;4.82;;;1.08;;
72275;SDS011;61204;49.980;8.358;2023-09-19T13:38:05;3.00;;;0.82;;
72275;SDS011;61204;49.980;8.358;2023-09-19T13:40:34;5.13;;;0.80;;
72275;SDS011;61204;49.980;8.358;2023-09-19T13:43:00;4.78;;;1.00;;
72275;SDS011;61204;49.980;8.358;2023-09-19T13:45:28;2.80;;;1.02;;
72275;SDS011;61204;49.980;8.358;2023-09-19T13:47:57;1.55;;;0.60;;
72275;SDS011;61204;49.980;8.358;2023-09-19T13:50:23;3.30;;;1.02;;
72275;SDS011;61204;49.980;8.358;2023-09-19T13:52:50;3.38;;;0.82;;
72275;SDS011;61204;49.980;8.358;2023-09-19T13:55:18;5.45;;;1.33;;
72275;SDS011;61204;49.980;8.358;2023-09-19T13:57:49;3.60;;;0.90;;
72275;SDS011;61204;49.980;8.358;2023-09-19T14:00:19;3.47;;;1.00;;
72275;SDS011;61204;49.980;8.358;2023-09-19T14:02:51;1.33;;;0.55;;
72275;SDS011;61204;49.980;8.358;2023-09-19T14:05:17;2.13;;;0.68;;
72275;SDS011;61204;49.980;8.358;2023-09-19T14:07:43;2.90;;;0.95;;
72275;SDS011;61204;49.980;8.358;2023-09-19T14:10:12;3.33;;;0.82;;
72275;SDS011;61204;49.980;8.358;2023-09-19T14:12:38;2.90;;;0.95;;
72275;SDS011;61204;49.980;8.358;2023-09-19T14:15:08;5.20;;;1.02;;
72275;SDS011;61204;49.980;8.358;2023-09-19T14:17:35;3.13;;;0.80;;
72275;SDS011;61204;49.980;8.358;2023-09-19T14:20:01;2.65;;;0.68;;
72275;SDS011;61204;49.980;8.358;2023-09-19T14:22:27;3.35;;;0.80;;
72275;SDS011;61204;49.980;8.358;2023-09-19T14:24:53;3.00;;;1.10;;
72275;SDS011;61204;49.980;8.358;2023-09-19T14:27:19;1.98;;;0.80;;
72275;SDS011;61204;49.980;8.358;2023-09-19T14:29:44;2.28;;;0.77;;
72275;SDS011;61204;49.980;8.358;2023-09-19T14:32:10;2.35;;;1.17;;
72275;SDS011;61204;49.980;8.358;2023-09-19T14:34:36;2.50;;;0.73;;
72275;SDS011;61204;49.980;8.358;2023-09-19T14:37:06;2.15;;;0.70;;
72275;SDS011;61204;49.980;8.358;2023-09-19T14:39:33;2.25;;;0.80;;
72275;SDS011;61204;49.980;8.358;2023-09-19T14:41:59;2.83;;;1.02;;
72275;SDS011;61204;49.980;8.358;2023-09-19T14:44:24;3.15;;;0.85;;
72275;SDS011;61204;49.980;8.358;2023-09-19T14:46:53;3.40;;;0.93;;
72275;SDS011;61204;49.980;8.358;2023-09-19T14:49:19;3.63;;;0.80;;
72275;SDS011;61204;49.980;8.358;2023-09-19T14:51:45;3.58;;;0.85;;
72275;SDS011;61204;49.980;8.358;2023-09-19T14:54:14;2.00;;;0.68;;
72275;SDS011;61204;49.980;8.358;2023-09-19T14:56:42;3.22;;;0.95;;
72275;SDS011;61204;49.980;8.358;2023-09-19T14:59:08;3.05;;;0.93;;
72275;SDS011;61204;49.980;8.358;2023-09-19T15:01:35;3.55;;;0.88;;
72275;SDS011;61204;49.980;8.358;2023-09-19T15:04:02;1.77;;;0.82;;
72275;SDS011;61204;49.980;8.358;2023-09-19T15:06:28;3.05;;;0.90;;
72275;SDS011;61204;49.980;8.358;2023-09-19T15:08:54;2.42;;;0.52;;
72275;SDS011;61204;49.980;8.358;2023-09-19T15:11:20;2.03;;;0.80;;
72275;SDS011;61204;49.980;8.358;2023-09-19T15:13:46;2.72;;;0.68;;
72275;SDS011;61204;49.980;8.358;2023-09-19T15:16:15;4.15;;;0.95;;
72275;SDS011;61204;49.980;8.358;2023-09-19T15:18:41;4.13;;;0.90;;
72275;SDS011;61204;49.980;8.358;2023-09-19T15:21:12;1.38;;;0.70;;
72275;SDS011;61204;49.980;8.358;2023-09-19T15:23:40;5.10;;;0.70;;
72275;SDS011;61204;49.980;8.358;2023-09-19T15:26:09;2.08;;;0.85;;
72275;SDS011;61204;49.980;8.358;2023-09-19T15:28:39;2.15;;;0.75;;
72275;SDS011;61204;49.980;8.358;2023-09-19T15:31:06;2.80;;;1.00;;
72275;SDS011;61204;49.980;8.358;2023-09-19T15:33:35;3.70;;;1.05;;
72275;SDS011;61204;49.980;8.358;2023-09-19T15:41:18;1.45;;;0.47;;
72275;SDS011;61204;49.980;8.358;2023-09-19T15:43:45;2.97;;;0.80;;
72275;SDS011;61204;49.980;8.358;2023-09-19T15:46:13;2.78;;;0.60;;
72275;SDS011;61204;49.980;8.358;2023-09-19T15:48:40;3.50;;;0.77;;
72275;SDS011;61204;49.980;8.358;2023-09-19T15:51:06;1.98;;;0.80;;
72275;SDS011;61204;49.980;8.358;2023-09-19T15:56:15;2.78;;;0.80;;
72275;SDS011;61204;49.980;8.358;2023-09-19T15:58:44;1.88;;;0.68;;
72275;SDS011;61204;49.980;8.358;2023-09-19T16:01:11;3.90;;;0.73;;
72275;SDS011;61204;49.980;8.358;2023-09-19T16:03:38;1.25;;;0.50;;
72275;SDS011;61204;49.980;8.358;2023-09-19T16:06:09;1.15;;;0.45;;
72275;SDS011;61204;49.980;8.358;2023-09-19T16:11:08;3.45;;;0.80;;
72275;SDS011;61204;49.980;8.358;2023-09-19T16:13:36;2.65;;;0.85;;
72275;SDS011;61204;49.980;8.358;2023-09-19T16:16:03;1.65;;;0.60;;
72275;SDS011;61204;49.980;8.358;2023-09-19T16:18:30;2.35;;;0.75;;
72275;SDS011;61204;49.980;8.358;2023-09-19T16:21:02;2.67;;;1.10;;
72275;SDS011;61204;49.980;8.358;2023-09-19T16:23:29;2.63;;;0.82;;
72275;SDS011;61204;49.980;8.358;2023-09-19T16:28:30;2.95;;;0.50;;
72275;SDS011;61204;49.980;8.358;2023-09-19T16:31:05;2.40;;;0.90;;
72275;SDS011;61204;49.980;8.358;2023-09-19T16:33:35;2.85;;;0.80;;
72275;SDS011;61204;49.980;8.358;2023-09-19T16:36:08;1.25;;;0.60;;
72275;SDS011;61204;49.980;8.358;2023-09-19T16:38:52;1.95;;;0.77;;
72275;SDS011;61204;49.980;8.358;2023-09-19T16:41:20;2.65;;;0.88;;
72275;SDS011;61204;49.980;8.358;2023-09-19T16:43:47;3.80;;;0.60;;